createdAt,value
2023-05-23T00:01:06.192Z,98199.19
2023-05-23T00:03:37.707Z,98198.16
2023-05-23T00:06:08.265Z,98208.28
2023-05-23T00:08:38.348Z,98187.91
2023-05-23T00:11:12.966Z,98209.19
2023-05-23T00:13:53.346Z,98204.81
2023-05-23T00:16:23.890Z,98178.19
2023-05-23T00:18:54.658Z,98205.59
2023-05-23T00:21:25.567Z,98201.28
2023-05-23T00:23:56.856Z,98200.84
2023-05-23T00:26:32.871Z,98200.00
2023-05-23T00:29:03.522Z,98200.88
2023-05-23T00:31:34.236Z,98209.72
2023-05-23T00:34:10.232Z,98208.50
2023-05-23T00:36:44.059Z,98199.91
2023-05-23T00:39:29.788Z,98153.25
2023-05-23T00:42:05.334Z,98210.53
2023-05-23T00:44:38.299Z,98199.19
2023-05-23T00:47:09.926Z,98209.28
2023-05-23T00:49:44.501Z,98203.31
2023-05-23T00:52:20.841Z,98186.56
2023-05-23T00:55:04.679Z,98196.38
2023-05-23T00:57:43.630Z,98188.97
2023-05-23T01:00:20.299Z,98190.88
2023-05-23T01:02:52.673Z,98184.47
2023-05-23T01:08:13.155Z,98168.63
2023-05-23T01:11:00.032Z,98185.88
2023-05-23T01:14:00.948Z,98184.28
2023-05-23T01:17:04.818Z,98182.16
2023-05-23T01:20:07.498Z,98184.03
2023-05-23T01:23:08.588Z,98179.84
2023-05-23T01:26:29.183Z,98193.16
2023-05-23T01:29:13.237Z,98188.09
2023-05-23T01:31:47.377Z,98189.13
2023-05-23T01:34:22.060Z,98182.78
2023-05-23T01:37:02.762Z,98193.38
2023-05-23T01:39:34.064Z,98186.88
2023-05-23T01:42:18.635Z,98173.50
2023-05-23T01:45:05.230Z,98197.94
2023-05-23T01:47:37.197Z,98197.63
2023-05-23T01:50:20.610Z,98191.09
2023-05-23T01:52:54.597Z,98188.81
2023-05-23T01:55:33.840Z,98187.19
2023-05-23T01:58:17.534Z,98172.97
2023-05-23T02:00:56.815Z,98189.63
2023-05-23T02:03:37.063Z,98192.56
2023-05-23T02:06:17.075Z,98192.91
2023-05-23T02:08:50.875Z,98149.84
2023-05-23T02:11:26.975Z,98196.66
2023-05-23T02:14:10.629Z,98193.38
2023-05-23T02:16:50.476Z,98190.28
2023-05-23T02:19:25.374Z,98189.13
2023-05-23T02:22:01.021Z,98193.69
2023-05-23T02:24:46.476Z,98183.91
2023-05-23T02:27:18.218Z,98192.59
2023-05-23T02:29:52.827Z,98191.59
2023-05-23T02:32:27.624Z,98185.41
2023-05-23T02:34:58.381Z,98185.72
2023-05-23T02:37:30.368Z,98190.78
2023-05-23T02:40:07.243Z,98180.66
2023-05-23T02:42:44.196Z,98161.94
2023-05-23T02:45:15.261Z,98167.75
2023-05-23T02:47:47.363Z,98164.03
2023-05-23T02:50:26.458Z,98158.16
2023-05-23T02:53:00.395Z,98168.59
2023-05-23T02:55:36.295Z,98165.31
2023-05-23T02:58:06.174Z,98164.63
2023-05-23T03:00:37.066Z,98154.91
2023-05-23T03:03:12.039Z,98176.91
2023-05-23T03:05:43.624Z,98160.72
2023-05-23T03:08:20.698Z,98169.72
2023-05-23T03:10:54.138Z,98165.31
2023-05-23T03:13:27.914Z,98172.13
2023-05-23T03:16:11.453Z,98161.34
2023-05-23T03:18:43.524Z,98178.31
2023-05-23T03:21:15.635Z,98173.81
2023-05-23T03:23:58.274Z,98176.31
2023-05-23T03:26:40.481Z,98166.88
2023-05-23T03:29:11.789Z,98170.28
2023-05-23T03:31:49.335Z,98174.31
2023-05-23T03:34:34.068Z,98181.56
2023-05-23T03:37:04.690Z,98183.00
2023-05-23T03:39:36.878Z,98170.94
2023-05-23T03:42:06.838Z,98185.16
2023-05-23T03:44:37.339Z,98183.16
2023-05-23T03:47:14.100Z,98176.38
2023-05-23T03:49:54.943Z,98171.63
2023-05-23T03:52:43.647Z,98172.28
2023-05-23T03:55:17.618Z,98176.00
2023-05-23T03:57:47.946Z,98166.75
2023-05-23T04:00:19.558Z,98170.97
2023-05-23T04:03:00.181Z,98169.06
2023-05-23T04:05:33.947Z,98171.03
2023-05-23T04:08:07.725Z,98119.03
2023-05-23T04:10:44.893Z,98181.16
2023-05-23T04:13:36.331Z,98182.63
2023-05-23T04:16:11.636Z,98183.03
2023-05-23T04:18:53.956Z,98183.66
2023-05-23T04:21:28.013Z,98193.13
2023-05-23T04:24:19.001Z,98190.06
2023-05-23T04:26:48.117Z,98193.22
2023-05-23T04:29:28.738Z,98186.69
2023-05-23T04:31:58.829Z,98145.59
2023-05-23T04:34:37.624Z,98188.47
2023-05-23T04:37:15.683Z,98183.25
2023-05-23T04:39:46.043Z,98182.44
2023-05-23T04:42:40.021Z,98191.91
2023-05-23T04:45:35.001Z,98187.94
2023-05-23T04:51:12.807Z,98182.31
2023-05-23T04:54:28.057Z,98179.00
2023-05-23T04:57:03.090Z,98181.16
2023-05-23T04:59:50.738Z,98189.34
2023-05-23T05:02:24.653Z,98182.31
2023-05-23T05:04:57.465Z,98192.25
2023-05-23T05:07:32.606Z,98197.41
2023-05-23T05:10:07.709Z,98185.72
2023-05-23T05:12:41.307Z,98185.94
2023-05-23T05:15:12.570Z,98193.22
2023-05-23T05:17:50.313Z,98190.25
2023-05-23T05:20:27.614Z,98170.25
2023-05-23T05:23:01.907Z,98183.09
2023-05-23T05:25:36.537Z,98180.59
2023-05-23T05:28:20.357Z,98191.13
2023-05-23T05:31:08.305Z,98179.13
2023-05-23T05:33:45.269Z,98174.50
2023-05-23T05:36:20.521Z,98183.91
2023-05-23T05:39:06.777Z,98190.84
2023-05-23T05:41:49.081Z,98182.59
2023-05-23T05:44:33.974Z,98188.41
2023-05-23T05:47:04.609Z,98181.50
2023-05-23T05:49:38.651Z,98179.56
2023-05-23T05:52:09.736Z,98178.66
2023-05-23T05:54:41.661Z,98160.44
2023-05-23T05:57:15.068Z,98154.63
2023-05-23T05:59:50.524Z,98159.44
2023-05-23T06:05:07.963Z,98171.06
2023-05-23T06:07:45.545Z,98157.97
2023-05-23T06:10:17.012Z,98110.78
2023-05-23T06:13:06.411Z,98160.72
2023-05-23T06:15:43.817Z,98146.72
2023-05-23T06:18:24.801Z,98133.13
2023-05-23T06:21:14.776Z,98150.84
2023-05-23T06:23:50.742Z,98146.66
2023-05-23T06:26:21.489Z,98148.22
2023-05-23T06:28:50.940Z,98149.97
2023-05-23T06:31:22.398Z,98096.22
2023-05-23T06:33:52.048Z,98127.63
2023-05-23T06:36:23.284Z,98133.97
2023-05-23T06:38:56.236Z,98145.25
2023-05-23T06:41:29.726Z,98147.41
2023-05-23T06:44:03.267Z,98144.44
2023-05-23T06:46:34.378Z,98092.59
2023-05-23T06:49:15.085Z,98142.69
2023-05-23T06:52:03.523Z,98135.50
2023-05-23T06:54:40.034Z,98133.38
2023-05-23T06:57:15.330Z,98121.81
2023-05-23T06:59:50.000Z,98129.31
2023-05-23T07:02:26.716Z,98126.44
2023-05-23T07:05:00.387Z,98124.69
2023-05-23T07:08:05.126Z,98120.63
2023-05-23T07:10:37.473Z,98133.00
2023-05-23T07:13:25.353Z,98126.59
2023-05-23T07:15:58.958Z,98127.41
2023-05-23T07:18:31.918Z,98119.75
2023-05-23T07:23:51.465Z,98108.84
2023-05-23T07:26:34.681Z,98115.31
2023-05-23T07:29:08.346Z,98104.72
2023-05-23T07:31:40.367Z,98109.53
2023-05-23T07:34:22.132Z,98100.38
2023-05-23T07:37:00.194Z,98087.78
2023-05-23T07:39:41.139Z,98102.78
2023-05-23T07:42:11.745Z,98100.31
2023-05-23T07:44:47.582Z,98099.13
2023-05-23T07:47:18.266Z,98098.22
2023-05-23T07:49:47.967Z,98094.66
2023-05-23T07:52:25.140Z,98094.47
2023-05-23T07:55:01.179Z,98093.81
2023-05-23T07:57:32.016Z,98092.91
2023-05-23T08:00:03.514Z,98088.53
2023-05-23T08:02:53.992Z,98074.94
2023-05-23T08:05:30.842Z,98079.25
2023-05-23T08:08:10.066Z,98082.59
2023-05-23T08:10:44.718Z,98074.09
2023-05-23T08:13:25.156Z,98053.19
2023-05-23T08:16:19.167Z,98068.59
2023-05-23T08:21:44.830Z,98068.41
2023-05-23T08:24:23.536Z,98066.38
2023-05-23T08:26:59.529Z,98056.50
2023-05-23T08:29:35.899Z,98064.19
2023-05-23T08:32:06.668Z,98061.53
2023-05-23T08:34:48.913Z,98067.19
2023-05-23T08:37:30.058Z,98052.03
2023-05-23T08:40:07.492Z,98062.25
2023-05-23T08:45:40.082Z,98060.19
2023-05-23T08:48:26.502Z,98062.19
2023-05-23T08:51:09.320Z,98056.22
2023-05-23T08:53:47.408Z,98055.94
2023-05-23T08:56:28.567Z,98052.47
2023-05-23T08:59:05.027Z,98051.34
2023-05-23T09:01:39.856Z,98014.31
2023-05-23T09:04:18.212Z,98050.19
2023-05-23T09:06:55.700Z,98040.59
2023-05-23T09:09:26.988Z,98042.25
2023-05-23T09:12:02.586Z,98041.84
2023-05-23T09:14:39.240Z,98040.63
2023-05-23T09:17:19.063Z,98028.94
2023-05-23T09:22:50.397Z,98022.16
2023-05-23T09:25:26.541Z,98024.97
2023-05-23T09:28:02.676Z,98026.16
2023-05-23T09:30:36.051Z,98020.16
2023-05-23T09:33:07.754Z,98008.47
2023-05-23T09:38:34.447Z,98004.06
2023-05-23T09:41:16.771Z,98005.66
2023-05-23T09:43:58.659Z,98012.47
2023-05-23T09:46:30.415Z,98015.69
2023-05-23T09:49:01.264Z,98004.84
2023-05-23T09:51:42.676Z,97997.16
2023-05-23T09:54:13.596Z,98003.06
2023-05-23T09:56:53.162Z,97982.94
2023-05-23T09:59:31.085Z,97991.00
2023-05-23T10:02:15.507Z,97984.94
2023-05-23T10:04:55.162Z,97976.03
2023-05-23T10:07:28.520Z,97976.25
2023-05-23T10:10:15.108Z,97976.97
2023-05-23T10:13:05.153Z,97945.44
2023-05-23T10:15:43.126Z,97972.38
2023-05-23T10:18:25.265Z,97973.75
2023-05-23T10:21:03.940Z,97967.28
2023-05-23T10:23:34.871Z,97965.56
2023-05-23T10:26:08.488Z,97971.81
2023-05-23T10:28:54.817Z,97966.09
2023-05-23T10:31:36.373Z,97968.50
2023-05-23T10:34:24.444Z,97961.50
2023-05-23T10:37:14.244Z,97955.28
2023-05-23T10:40:03.711Z,97964.09
2023-05-23T10:42:57.704Z,97955.78
2023-05-23T10:45:30.414Z,97952.94
2023-05-23T10:48:05.899Z,97940.44
2023-05-23T10:50:39.819Z,97945.19
2023-05-23T10:53:14.149Z,97938.34
2023-05-23T10:55:58.597Z,97924.34
2023-05-23T10:58:33.381Z,97938.34
2023-05-23T11:01:04.029Z,97935.44
2023-05-23T11:03:56.211Z,97922.72
2023-05-23T11:06:49.718Z,97927.31
2023-05-23T11:09:24.502Z,97925.41
2023-05-23T11:12:00.510Z,97924.22
2023-05-23T11:15:00.105Z,97921.03
2023-05-23T11:20:23.587Z,97909.19
2023-05-23T11:23:15.702Z,97905.63
2023-05-23T11:26:05.448Z,97902.44
2023-05-23T11:28:59.138Z,97908.88
2023-05-23T11:31:42.552Z,97897.97
2023-05-23T11:34:14.162Z,97902.19
2023-05-23T11:36:43.609Z,97889.81
2023-05-23T11:39:14.361Z,97898.03
2023-05-23T11:41:46.977Z,97879.63
2023-05-23T11:44:17.169Z,97876.88
2023-05-23T11:47:03.783Z,97871.69
2023-05-23T11:49:36.819Z,97876.13
2023-05-23T11:52:14.385Z,97867.25
2023-05-23T11:54:55.304Z,97857.75
2023-05-23T11:57:35.210Z,97849.78
2023-05-23T12:00:06.994Z,97858.81
2023-05-23T12:02:52.255Z,97846.03
2023-05-23T12:05:31.478Z,97856.50
2023-05-23T12:08:03.390Z,97856.69
2023-05-23T12:10:41.702Z,97858.41
2023-05-23T12:13:21.061Z,97850.69
2023-05-23T12:15:57.468Z,97843.16
2023-05-23T12:18:37.762Z,97843.59
2023-05-23T12:21:21.658Z,97833.44
2023-05-23T12:24:07.171Z,97834.44
2023-05-23T12:26:52.039Z,97836.69
2023-05-23T12:29:42.219Z,97834.34
2023-05-23T12:32:16.318Z,97809.53
2023-05-23T12:34:54.332Z,97824.41
2023-05-23T12:37:27.831Z,97812.56
2023-05-23T12:39:59.096Z,97811.22
2023-05-23T12:42:32.606Z,97805.34
2023-05-23T12:47:47.729Z,97805.88
2023-05-23T12:50:19.848Z,97807.56
2023-05-23T12:52:53.361Z,97813.72
2023-05-23T12:55:23.201Z,97797.72
2023-05-23T12:57:50.990Z,97800.00
2023-05-23T13:00:39.153Z,97815.22
2023-05-23T13:03:10.673Z,97815.09
2023-05-23T13:05:40.565Z,97815.22
2023-05-23T13:08:15.249Z,97809.44
2023-05-23T13:13:30.629Z,97807.72
2023-05-23T13:16:04.965Z,97820.78
2023-05-23T13:18:33.433Z,97813.34
2023-05-23T13:21:05.082Z,97814.22
2023-05-23T13:23:45.751Z,97814.03
2023-05-23T13:26:15.711Z,97804.59
2023-05-23T13:28:53.863Z,97818.91
2023-05-23T13:31:25.168Z,97810.56
2023-05-23T13:33:54.413Z,97799.78
2023-05-23T13:39:11.558Z,97794.84
2023-05-23T13:44:25.548Z,97803.41
2023-05-23T13:47:00.207Z,97806.28
2023-05-23T13:49:33.016Z,97799.88
2023-05-23T13:52:23.278Z,97804.59
2023-05-23T13:54:54.303Z,97797.53
2023-05-23T13:57:32.648Z,97799.78
2023-05-23T14:00:03.167Z,97810.50
2023-05-23T14:02:55.588Z,97838.19
2023-05-23T14:05:29.697Z,97841.00
2023-05-23T14:08:02.521Z,97850.88
2023-05-23T14:10:33.965Z,97848.44
2023-05-23T14:13:09.021Z,97854.63
2023-05-23T14:15:41.626Z,97855.97
2023-05-23T14:18:19.949Z,97843.50
2023-05-23T14:20:51.501Z,97864.66
2023-05-23T14:23:20.853Z,97860.97
2023-05-23T14:25:49.070Z,97875.25
2023-05-23T14:31:09.282Z,97894.69
2023-05-23T14:33:39.938Z,97908.59
2023-05-23T14:36:14.173Z,97908.44
2023-05-23T14:38:49.462Z,97905.03
2023-05-23T14:41:23.554Z,97925.22
2023-05-23T14:43:57.228Z,97932.59
2023-05-23T14:46:28.575Z,97935.88
2023-05-23T14:49:06.480Z,97933.91
2023-05-23T14:51:48.575Z,97958.88
2023-05-23T14:54:20.953Z,97945.56
2023-05-23T14:56:54.223Z,97976.50
2023-05-23T14:59:38.009Z,97987.75
2023-05-23T15:02:09.655Z,98005.94
2023-05-23T15:07:32.737Z,98017.91
2023-05-23T15:10:05.229Z,98035.38
2023-05-23T15:12:38.744Z,98026.94
2023-05-23T15:15:13.255Z,98029.78
2023-05-23T15:17:46.207Z,98022.06
2023-05-23T15:20:25.246Z,98035.44
2023-05-23T15:23:05.118Z,98040.47
2023-05-23T15:25:49.338Z,98044.34
2023-05-23T15:28:24.358Z,98050.34
2023-05-23T15:31:00.271Z,98041.09
2023-05-23T15:33:37.747Z,98038.75
2023-05-23T15:36:08.546Z,98024.13
2023-05-23T15:38:39.222Z,98022.78
2023-05-23T15:41:10.825Z,98032.25
2023-05-23T15:43:43.609Z,98034.94
2023-05-23T15:46:14.087Z,98043.22
2023-05-23T15:48:54.578Z,98051.16
2023-05-23T15:51:25.049Z,98049.63
2023-05-23T15:56:25.448Z,98051.81
2023-05-23T15:59:01.506Z,98063.84
2023-05-23T16:01:36.265Z,98066.91
2023-05-23T16:04:10.681Z,98078.69
2023-05-23T16:06:44.969Z,98066.22
2023-05-23T16:09:21.220Z,98073.00
2023-05-23T16:11:52.233Z,98088.88
2023-05-23T16:14:22.326Z,98076.66
2023-05-23T16:16:53.981Z,98049.56
2023-05-23T16:19:35.392Z,98059.78
2023-05-23T16:22:05.660Z,98005.44
2023-05-23T16:24:34.957Z,98073.72
2023-05-23T16:27:04.565Z,98049.66
2023-05-23T16:29:37.935Z,98036.22
2023-05-23T16:34:54.367Z,98034.91
2023-05-23T16:37:34.002Z,98064.59
2023-05-23T16:40:13.004Z,98048.03
2023-05-23T16:42:43.400Z,98047.28
2023-05-23T16:45:11.327Z,98054.78
2023-05-23T16:47:49.754Z,98052.56
2023-05-23T16:50:20.584Z,98051.09
2023-05-23T16:55:40.452Z,98035.31
2023-05-23T16:58:15.172Z,98042.63
2023-05-23T17:00:45.555Z,98041.06
2023-05-23T17:03:17.371Z,98050.28
2023-05-23T17:05:50.900Z,98043.59
2023-05-23T17:08:23.848Z,98048.56
2023-05-23T17:10:57.348Z,98065.88
2023-05-23T17:13:33.132Z,98069.28
2023-05-23T17:16:03.628Z,98057.19
2023-05-23T17:18:43.732Z,98069.97
2023-05-23T17:21:17.106Z,98067.25
2023-05-23T17:23:48.966Z,98075.19
2023-05-23T17:26:20.091Z,98073.28
2023-05-23T17:28:51.103Z,98069.59
2023-05-23T17:31:21.161Z,98086.19
2023-05-23T17:33:51.701Z,98092.41
2023-05-23T17:36:25.475Z,98088.28
2023-05-23T17:39:04.040Z,98077.81
2023-05-23T17:44:18.751Z,98096.16
2023-05-23T17:46:47.960Z,98098.06
2023-05-23T17:49:18.570Z,98098.22
2023-05-23T17:51:50.189Z,98102.97
2023-05-23T17:54:18.826Z,98107.31
2023-05-23T17:56:49.990Z,98106.28
2023-05-23T17:59:21.580Z,98112.16
2023-05-23T18:01:58.093Z,98106.06
2023-05-23T18:07:34.169Z,98115.56
2023-05-23T18:10:03.749Z,98120.97
2023-05-23T18:12:47.028Z,98126.75
2023-05-23T18:15:17.959Z,98102.31
2023-05-23T18:18:00.972Z,98125.94
2023-05-23T18:20:34.184Z,98129.53
2023-05-23T18:23:08.429Z,98134.84
2023-05-23T18:25:37.323Z,98117.09
2023-05-23T18:28:11.303Z,98126.84
2023-05-23T18:31:01.657Z,98140.91
2023-05-23T18:33:31.505Z,98140.56
2023-05-23T18:36:05.473Z,98148.06
2023-05-23T18:38:36.365Z,98122.44
2023-05-23T18:41:13.928Z,98154.06
2023-05-23T18:43:44.631Z,98137.47
2023-05-23T18:46:21.570Z,98145.50
2023-05-23T18:48:55.514Z,98130.09
2023-05-23T18:51:30.019Z,98142.53
2023-05-23T18:54:07.314Z,98144.59
2023-05-23T18:56:53.190Z,98142.91
2023-05-23T18:59:36.750Z,98126.19
2023-05-23T19:02:07.182Z,98146.50
2023-05-23T19:04:38.993Z,98125.66
2023-05-23T19:07:21.318Z,98142.41
2023-05-23T19:09:58.822Z,98143.84
2023-05-23T19:12:34.743Z,98156.59
2023-05-23T19:15:21.583Z,98144.75
2023-05-23T19:17:56.523Z,98141.19
2023-05-23T19:20:26.403Z,98150.72
2023-05-23T19:23:00.346Z,98141.97
2023-05-23T19:28:19.413Z,98143.50
2023-05-23T19:30:48.521Z,98155.94
2023-05-23T19:33:24.026Z,98152.63
2023-05-23T19:35:54.989Z,98149.69
2023-05-23T19:38:25.618Z,98152.41
2023-05-23T19:40:55.588Z,98160.91
2023-05-23T19:43:27.307Z,98148.84
2023-05-23T19:45:59.638Z,98147.19
2023-05-23T19:48:30.236Z,98157.41
2023-05-23T19:50:59.609Z,98155.91
2023-05-23T19:53:30.570Z,98159.69
2023-05-23T19:56:05.977Z,98156.03
2023-05-23T19:58:38.048Z,98151.00
2023-05-23T20:01:08.268Z,98156.94
2023-05-23T20:03:38.838Z,98161.13
2023-05-23T20:06:17.307Z,98165.59
2023-05-23T20:08:47.688Z,98173.16
2023-05-23T20:11:17.559Z,98169.25
2023-05-23T20:13:50.147Z,98171.44
2023-05-23T20:16:28.274Z,98162.41
2023-05-23T20:19:01.251Z,98185.03
2023-05-23T20:21:41.888Z,98190.00
2023-05-23T20:24:21.626Z,98188.00
2023-05-23T20:26:50.126Z,98197.19
2023-05-23T20:29:18.441Z,98197.25
2023-05-23T20:31:53.130Z,98205.94
2023-05-23T20:34:34.601Z,98210.03
2023-05-23T20:37:07.470Z,98212.13
2023-05-23T20:39:41.294Z,98210.19
2023-05-23T20:42:11.812Z,98214.38
2023-05-23T20:44:43.019Z,98217.66
2023-05-23T20:47:13.078Z,98222.06
2023-05-23T20:49:44.895Z,98213.56
2023-05-23T20:52:15.302Z,98224.25
2023-05-23T20:54:52.246Z,98215.53
2023-05-23T20:57:29.135Z,98220.50
2023-05-23T21:00:00.602Z,98169.44
2023-05-23T21:02:32.581Z,98223.09
2023-05-23T21:05:03.773Z,98229.00
2023-05-23T21:07:36.492Z,98213.84
2023-05-23T21:10:07.616Z,98225.88
2023-05-23T21:12:53.303Z,98227.38
2023-05-23T21:15:27.728Z,98230.41
2023-05-23T21:18:01.063Z,98226.91
2023-05-23T21:20:39.092Z,98207.53
2023-05-23T21:23:14.680Z,98218.06
2023-05-23T21:26:00.366Z,98222.84
2023-05-23T21:28:31.568Z,98225.75
2023-05-23T21:31:03.421Z,98226.78
2023-05-23T21:33:47.205Z,98220.13
2023-05-23T21:36:20.790Z,98223.75
2023-05-23T21:38:49.521Z,98232.81
2023-05-23T21:41:27.853Z,98238.88
2023-05-23T21:44:10.059Z,98219.69
2023-05-23T21:46:43.273Z,98224.00
2023-05-23T21:49:17.472Z,98230.94
2023-05-23T21:51:55.675Z,98226.00
2023-05-23T21:54:29.478Z,98232.28
2023-05-23T21:56:58.702Z,98232.06
2023-05-23T21:59:38.843Z,98233.69
2023-05-23T22:02:13.508Z,98233.81
2023-05-23T22:07:32.521Z,98227.66
2023-05-23T22:10:02.752Z,98222.75
2023-05-23T22:12:32.453Z,98228.31
2023-05-23T22:15:02.817Z,98216.75
2023-05-23T22:17:37.360Z,98228.81
2023-05-23T22:20:08.828Z,98213.22
2023-05-23T22:22:40.602Z,98236.00
2023-05-23T22:25:12.886Z,98232.75
2023-05-23T22:27:46.665Z,98230.91
2023-05-23T22:30:15.922Z,98222.75
2023-05-23T22:32:49.677Z,98216.13
2023-05-23T22:35:18.545Z,98218.34
2023-05-23T22:37:53.013Z,98211.34
2023-05-23T22:40:23.735Z,98217.69
2023-05-23T22:42:57.407Z,98216.22
2023-05-23T22:48:11.552Z,98225.06
2023-05-23T22:50:47.165Z,98226.91
2023-05-23T22:53:17.677Z,98231.34
2023-05-23T22:55:48.909Z,98236.91
2023-05-23T22:58:18.397Z,98232.84
2023-05-23T23:00:49.103Z,98230.50
2023-05-23T23:03:22.848Z,98222.13
2023-05-23T23:05:57.246Z,98239.22
2023-05-23T23:08:30.705Z,98240.81
2023-05-23T23:11:01.574Z,98230.25
2023-05-23T23:13:29.932Z,98224.19
2023-05-23T23:16:04.664Z,98230.84
2023-05-23T23:18:32.674Z,98217.63
2023-05-23T23:21:05.710Z,98224.59
2023-05-23T23:23:38.263Z,98228.53
2023-05-23T23:26:12.312Z,98225.97
2023-05-23T23:28:45.982Z,98239.00
2023-05-23T23:31:17.070Z,98237.50
2023-05-23T23:33:51.224Z,98231.22
2023-05-23T23:36:22.105Z,98239.22
2023-05-23T23:38:56.024Z,98232.72
2023-05-23T23:41:29.244Z,98236.31
2023-05-23T23:43:59.792Z,98250.59
2023-05-23T23:46:31.119Z,98248.53
2023-05-23T23:49:07.498Z,98250.00
2023-05-23T23:51:37.910Z,98253.75
2023-05-23T23:54:08.119Z,98253.66
2023-05-23T23:56:38.993Z,98256.91
2023-05-23T23:59:12.413Z,98243.97
